Time;durP1;ratioP1;P1;durP2;ratioP2;P2;SDS_P1;SDS_P2;PMS_P1;PMS_P2;Temp;Humidity;BMP_temperature;BMP_pressure;BME280_temperature;BME280_humidity;BME280_pressure;Samples;Min_cycle;Max_cycle;Signal;HPM_P1;HPM_P2
2024/03/26 00:02:08;;;;;;;4.65;3.00;;;;;;;3.76;100.00;98583.56;5015702;28;20045;-75
2024/03/26 00:04:34;;;;;;;6.68;3.22;;;;;;;3.79;100.00;98580.53;5032421;28;20384;-75
2024/03/26 00:07:00;;;;;;;4.13;2.38;;;;;;;3.85;100.00;98582.44;5015621;28;20460;-75
2024/03/26 00:09:26;;;;;;;4.43;2.47;;;;;;;3.89;100.00;98580.22;5015590;28;20044;-75
2024/03/26 00:11:51;;;;;;;8.02;2.90;;;;;;;3.92;100.00;98579.88;5015637;28;20095;-75
2024/03/26 00:14:17;;;;;;;7.68;3.22;;;;;;;3.99;100.00;98582.59;5015506;28;20033;-75
2024/03/26 00:16:43;;;;;;;5.50;2.55;;;;;;;4.06;100.00;98586.19;5032278;28;20030;-75
2024/03/26 00:19:08;;;;;;;6.55;3.08;;;;;;;4.14;100.00;98583.41;4999837;28;20087;-75
2024/03/26 00:21:35;;;;;;;9.45;4.50;;;;;;;4.18;100.00;98580.19;4999467;28;20116;-75
2024/03/26 00:24:00;;;;;;;6.13;3.00;;;;;;;4.21;100.00;98573.66;5016235;28;20120;-75
2024/03/26 00:26:26;;;;;;;5.95;3.35;;;;;;;4.22;100.00;98567.31;4999528;28;20528;-75
2024/03/26 00:28:51;;;;;;;3.22;2.15;;;;;;;4.25;100.00;98561.63;4999511;28;20100;-75
2024/03/26 00:31:17;;;;;;;2.95;1.98;;;;;;;4.25;100.00;98558.97;5015570;28;20033;-75
2024/03/26 00:33:43;;;;;;;4.68;3.03;;;;;;;4.25;100.00;98555.47;5032194;28;20047;-75
2024/03/26 00:36:09;;;;;;;3.22;1.88;;;;;;;4.19;100.00;98554.41;5015513;28;20033;-75
2024/03/26 00:38:35;;;;;;;4.28;2.22;;;;;;;4.18;100.00;98553.59;5015795;28;20034;-75
2024/03/26 00:41:01;;;;;;;4.40;2.22;;;;;;;4.19;100.00;98552.56;5015670;28;20033;-75
2024/03/26 00:43:29;;;;;;;4.22;2.25;;;;;;;4.23;100.00;98550.34;4999320;28;20041;-75
2024/03/26 00:45:55;;;;;;;3.35;1.50;;;;;;;4.34;100.00;98549.84;5015579;28;20025;-75
2024/03/26 00:48:20;;;;;;;5.80;2.13;;;;;;;4.53;100.00;98542.25;5031491;28;20036;-76
2024/03/26 00:50:46;;;;;;;4.22;1.48;;;;;;;4.63;100.00;98543.56;5015469;28;20079;-75
2024/03/26 00:53:12;;;;;;;2.53;1.83;;;;;;;4.63;100.00;98537.41;5032657;28;20030;-75
2024/03/26 00:55:38;;;;;;;2.63;1.52;;;;;;;4.58;100.00;98543.31;5001396;28;20456;-75
2024/03/26 00:58:04;;;;;;;2.13;1.40;;;;;;;4.63;100.00;98542.72;5035434;28;20041;-75
2024/03/26 01:00:29;;;;;;;4.22;1.83;;;;;;;4.60;100.00;98535.97;5035226;28;20045;-75
2024/03/26 01:02:55;;;;;;;2.92;1.50;;;;;;;4.53;100.00;98532.41;5018673;28;20025;-75
2024/03/26 01:05:21;;;;;;;2.20;1.42;;;;;;;4.44;100.00;98530.06;5018598;28;20033;-75
2024/03/26 01:07:46;;;;;;;2.83;1.88;;;;;;;4.35;100.00;98534.72;5018470;28;20037;-75
2024/03/26 01:10:12;;;;;;;2.45;1.25;;;;;;;4.40;100.00;98533.13;5018807;28;20072;-75
2024/03/26 01:12:37;;;;;;;3.22;1.67;;;;;;;4.55;100.00;98541.03;5002449;28;20384;-75
2024/03/26 01:15:03;;;;;;;2.42;1.40;;;;;;;4.69;100.00;98528.66;5018440;28;20398;-75
2024/03/26 01:17:29;;;;;;;3.63;2.30;;;;;;;4.82;100.00;98534.09;5002332;28;20034;-75
2024/03/26 01:19:54;;;;;;;3.30;1.75;;;;;;;4.94;100.00;98529.03;5018110;28;20029;-75
2024/03/26 01:22:20;;;;;;;7.45;3.25;;;;;;;5.02;100.00;98528.06;5018347;28;20105;-75
2024/03/26 01:24:46;;;;;;;5.57;2.78;;;;;;;5.12;100.00;98530.41;5018458;28;20029;-75
2024/03/26 01:27:11;;;;;;;6.90;3.63;;;;;;;5.22;100.00;98523.69;5002168;28;20072;-75
2024/03/26 01:29:39;;;;;;;9.30;3.33;;;;;;;5.30;100.00;98522.72;5018417;28;20464;-75
2024/03/26 01:32:05;;;;;;;10.68;4.57;;;;;;;5.31;100.00;98519.03;5050596;28;20033;-75
2024/03/26 01:34:30;;;;;;;10.18;4.72;;;;;;;5.37;100.00;98525.41;5018337;28;20030;-75
2024/03/26 01:36:56;;;;;;;9.43;4.13;;;;;;;5.41;100.00;98524.00;5018250;28;20037;-75
2024/03/26 01:39:22;;;;;;;12.30;5.50;;;;;;;5.54;100.00;98526.75;5001916;28;20033;-75
2024/03/26 01:41:47;;;;;;;10.98;6.53;;;;;;;5.64;100.00;98521.03;5001926;28;20040;-75
2024/03/26 01:44:13;;;;;;;12.27;5.78;;;;;;;5.68;100.00;98520.44;5034181;28;20080;-75
2024/03/26 01:46:38;;;;;;;11.02;5.55;;;;;;;5.68;100.00;98509.75;5001795;28;20037;-75
2024/03/26 01:49:05;;;;;;;11.82;6.50;;;;;;;5.72;100.00;98513.69;5034124;28;20030;-75
2024/03/26 01:51:33;;;;;;;11.18;6.25;;;;;;;5.76;100.00;98516.75;5017525;28;20048;-75
2024/03/26 01:54:03;;;;;;;13.20;5.65;;;;;;;5.78;100.00;98511.25;5001745;28;20083;-75
2024/03/26 01:56:29;;;;;;;16.52;6.05;;;;;;;5.77;100.00;98512.25;5002166;28;20124;-75
2024/03/26 01:58:58;;;;;;;14.57;6.55;;;;;;;5.79;100.00;98502.22;5001757;28;20033;-75
2024/03/26 02:01:26;;;;;;;13.38;5.50;;;;;;;5.81;100.00;98505.50;5034237;28;20030;-75
2024/03/26 02:03:53;;;;;;;8.30;5.55;;;;;;;5.80;100.00;98501.22;5017426;28;20033;-75
2024/03/26 02:06:19;;;;;;;11.65;5.95;;;;;;;5.81;100.00;98500.19;5034429;28;20033;-75
2024/03/26 02:08:45;;;;;;;9.43;4.47;;;;;;;5.82;100.00;98496.47;5017837;28;20461;-75
2024/03/26 02:11:11;;;;;;;12.93;4.65;;;;;;;5.81;100.00;98487.66;5033590;28;20053;-75
2024/03/26 02:13:37;;;;;;;8.07;5.07;;;;;;;5.83;100.00;98490.94;5017574;28;20472;-75
2024/03/26 02:16:03;;;;;;;8.60;5.20;;;;;;;5.82;100.00;98489.31;5017501;28;20037;-75
2024/03/26 02:18:29;;;;;;;11.95;6.20;;;;;;;5.84;100.00;98484.59;5017529;28;20060;-75
2024/03/26 02:20:54;;;;;;;10.75;5.80;;;;;;;5.82;100.00;98470.66;5001117;28;20081;-75
2024/03/26 02:23:21;;;;;;;13.35;6.45;;;;;;;5.85;100.00;98466.75;5017681;28;20041;-75
2024/03/26 02:25:46;;;;;;;14.35;6.90;;;;;;;5.85;100.00;98467.56;5017199;28;20487;-75
2024/03/26 02:28:12;;;;;;;16.25;6.95;;;;;;;5.87;100.00;98462.84;5001027;28;20041;-75
2024/03/26 02:30:40;;;;;;;16.00;6.95;;;;;;;5.89;100.00;98460.81;5018061;28;20022;-75
2024/03/26 02:33:05;;;;;;;11.75;6.28;;;;;;;5.90;100.00;98464.28;5001188;28;20076;-75
2024/03/26 02:35:31;;;;;;;18.77;6.90;;;;;;;5.90;100.00;98466.94;5017081;28;20061;-75
2024/03/26 02:37:56;;;;;;;11.20;6.60;;;;;;;5.91;100.00;98465.94;5017186;28;20122;-75
2024/03/26 02:40:23;;;;;;;17.33;8.30;;;;;;;5.90;100.00;98462.47;5016669;28;20389;-75
2024/03/26 02:42:49;;;;;;;8.48;5.38;;;;;;;5.91;100.00;98447.28;5033241;28;20057;-75
2024/03/26 02:45:15;;;;;;;9.85;5.03;;;;;;;5.86;100.00;98447.88;5000354;28;20034;-75
2024/03/26 02:47:41;;;;;;;12.95;5.53;;;;;;;5.85;100.00;98446.25;5000755;28;20039;-75
2024/03/26 02:50:07;;;;;;;9.50;5.18;;;;;;;5.85;100.00;98448.09;5033321;28;20065;-75
2024/03/26 02:52:32;;;;;;;8.43;4.22;;;;;;;5.84;100.00;98449.91;5049887;28;20038;-75
2024/03/26 02:54:58;;;;;;;10.82;5.22;;;;;;;5.83;100.00;98450.13;5000562;28;20116;-75
2024/03/26 02:57:24;;;;;;;4.47;3.03;;;;;;;5.85;100.00;98445.44;4999939;28;20049;-75
2024/03/26 02:59:49;;;;;;;9.68;4.03;;;;;;;5.85;100.00;98440.91;5000453;28;20033;-75
2024/03/26 03:02:15;;;;;;;6.90;3.92;;;;;;;5.88;100.00;98439.69;5016543;28;20041;-75
2024/03/26 03:04:41;;;;;;;7.07;3.92;;;;;;;5.91;100.00;98442.75;5000425;28;20037;-75
2024/03/26 03:07:06;;;;;;;6.72;4.03;;;;;;;5.92;100.00;98441.72;5000336;28;20041;-75
2024/03/26 03:09:32;;;;;;;8.57;5.20;;;;;;;5.92;100.00;98436.38;5000297;28;20129;-75
2024/03/26 03:11:57;;;;;;;6.03;3.47;;;;;;;5.92;100.00;98438.25;5032672;28;20040;-75
2024/03/26 03:14:27;;;;;;;3.80;2.25;;;;;;;5.91;100.00;98424.09;5001070;28;20029;-75
2024/03/26 03:16:53;;;;;;;5.28;3.50;;;;;;;5.88;100.00;98424.50;4999905;28;20068;-75
2024/03/26 03:19:18;;;;;;;5.00;2.75;;;;;;;5.88;100.00;98419.16;5000121;28;20045;-75
2024/03/26 03:21:44;;;;;;;9.70;4.43;;;;;;;5.90;100.00;98426.94;5016295;28;20060;-75
2024/03/26 03:24:09;;;;;;;8.73;3.83;;;;;;;5.90;100.00;98426.94;5000108;28;20036;-75
2024/03/26 03:26:35;;;;;;;6.38;3.60;;;;;;;5.93;100.00;98429.22;5000111;28;20128;-75
2024/03/26 03:29:01;;;;;;;4.03;2.88;;;;;;;5.94;100.00;98423.72;5016386;28;20046;-75
2024/03/26 03:31:29;;;;;;;8.60;3.67;;;;;;;5.98;100.00;98420.63;5032827;28;20025;-75
2024/03/26 03:33:55;;;;;;;7.38;3.60;;;;;;;5.95;100.00;98421.84;5016135;28;20025;-75
2024/03/26 03:36:21;;;;;;;6.93;3.53;;;;;;;5.97;100.00;98419.81;5032459;28;20033;-75
2024/03/26 03:38:47;;;;;;;7.75;3.67;;;;;;;5.97;100.00;98425.16;5032810;28;20041;-75
2024/03/26 03:41:13;;;;;;;4.35;2.63;;;;;;;5.97;100.00;98421.66;4999777;28;20403;-75
2024/03/26 03:43:38;;;;;;;6.70;3.08;;;;;;;5.98;100.00;98424.13;4999943;28;20130;-75
2024/03/26 03:46:04;;;;;;;9.18;4.45;;;;;;;5.98;100.00;98423.28;4999849;28;20043;-74
2024/03/26 03:48:30;;;;;;;5.38;3.38;;;;;;;5.97;100.00;98422.47;4999828;28;20116;-75
2024/03/26 03:50:56;;;;;;;6.10;3.33;;;;;;;5.97;100.00;98424.34;4999744;28;20042;-75
2024/03/26 03:53:22;;;;;;;9.18;4.70;;;;;;;5.97;100.00;98421.66;4999792;28;20037;-75
2024/03/26 03:55:47;;;;;;;7.70;3.58;;;;;;;5.98;100.00;98421.47;5016053;28;20041;-76
2024/03/26 03:58:14;;;;;;;6.78;3.65;;;;;;;5.99;100.00;98419.63;4999802;28;20038;-75
2024/03/26 04:00:40;;;;;;;8.65;4.32;;;;;;;6.00;100.00;98415.91;5032465;28;20092;-75
2024/03/26 04:03:06;;;;;;;8.50;4.57;;;;;;;6.03;100.00;98421.66;5016033;28;20490;-75
2024/03/26 04:05:36;;;;;;;9.38;4.22;;;;;;;6.09;100.00;98414.72;5016010;28;20034;-75
2024/03/26 04:08:02;;;;;;;11.52;4.68;;;;;;;6.08;100.00;98403.19;4999833;28;20091;-75
2024/03/26 04:10:29;;;;;;;9.18;4.43;;;;;;;6.07;100.00;98401.56;5015832;28;20040;-75
2024/03/26 04:12:55;;;;;;;8.73;4.55;;;;;;;6.07;100.00;98404.22;5031920;28;20079;-75
2024/03/26 04:15:20;;;;;;;11.48;5.22;;;;;;;6.08;100.00;98403.19;4999677;28;20045;-75
2024/03/26 04:17:50;;;;;;;8.27;3.60;;;;;;;6.10;100.00;98409.16;5016210;28;20041;-75
2024/03/26 04:20:16;;;;;;;7.35;3.28;;;;;;;6.07;100.00;98401.56;4999552;28;20037;-75
2024/03/26 04:22:46;;;;;;;8.32;3.78;;;;;;;6.08;100.00;98399.72;4999446;28;20140;-75
2024/03/26 04:25:12;;;;;;;6.53;3.70;;;;;;;6.05;100.00;98397.47;4999154;28;20116;-75
2024/03/26 04:27:37;;;;;;;6.68;3.40;;;;;;;6.01;100.00;98405.06;5032083;28;20445;-75
2024/03/26 04:30:04;;;;;;;7.90;3.78;;;;;;;5.98;100.00;98397.47;5002493;28;20128;-75
2024/03/26 04:32:29;;;;;;;8.50;4.22;;;;;;;6.03;100.00;98415.50;5003219;28;20037;-75
2024/03/26 04:34:55;;;;;;;9.80;4.60;;;;;;;6.04;100.00;98401.97;5019478;28;20039;-75
2024/03/26 04:37:20;;;;;;;9.38;4.95;;;;;;;6.05;100.00;98403.59;5003169;28;20041;-76
2024/03/26 04:39:46;;;;;;;10.43;5.07;;;;;;;6.06;100.00;98409.75;5018972;28;20060;-75
2024/03/26 04:42:12;;;;;;;14.00;5.18;;;;;;;6.06;100.00;98407.09;5003011;28;20069;-75
2024/03/26 04:44:37;;;;;;;11.15;5.22;;;;;;;6.07;100.00;98404.22;5002974;28;20034;-75
2024/03/26 04:47:03;;;;;;;7.18;3.88;;;;;;;6.08;100.00;98413.88;5002914;28;20037;-75
2024/03/26 04:49:29;;;;;;;7.70;3.70;;;;;;;6.08;100.00;98408.53;5019190;28;20095;-75
2024/03/26 04:51:55;;;;;;;8.00;4.53;;;;;;;6.12;100.00;98412.44;5018907;28;20053;-75
2024/03/26 04:54:23;;;;;;;9.07;4.18;;;;;;;6.14;100.00;98414.91;5002988;28;20049;-75
2024/03/26 04:56:49;;;;;;;6.03;3.63;;;;;;;6.10;100.00;98408.34;5002997;28;20060;-76
2024/03/26 04:59:14;;;;;;;7.90;3.13;;;;;;;6.11;100.00;98405.47;5035080;28;20369;-75
2024/03/26 05:01:40;;;;;;;6.57;3.60;;;;;;;6.13;100.00;98414.06;5018936;28;20466;-75
2024/03/26 05:04:05;;;;;;;12.32;5.55;;;;;;;6.17;100.00;98406.50;5035464;28;20098;-75
2024/03/26 05:06:31;;;;;;;11.40;5.45;;;;;;;6.20;100.00;98406.09;5002671;28;20038;-75
2024/03/26 05:08:57;;;;;;;12.98;6.38;;;;;;;6.23;100.00;98396.84;5035378;28;20485;-75
2024/03/26 05:11:22;;;;;;;5.22;2.92;;;;;;;6.23;100.00;98396.84;5018655;28;20543;-75
2024/03/26 05:13:48;;;;;;;10.90;5.00;;;;;;;6.20;100.00;98394.59;5002413;28;20041;-75
2024/03/26 05:16:13;;;;;;;12.43;6.13;;;;;;;6.17;100.00;98393.16;5036700;28;20025;-75
2024/03/26 05:18:39;;;;;;;9.52;5.25;;;;;;;6.16;100.00;98388.84;5002039;28;20396;-75
2024/03/26 05:21:05;;;;;;;6.68;4.15;;;;;;;6.18;100.00;98388.63;5002397;28;20361;-75
2024/03/26 05:23:30;;;;;;;6.60;3.17;;;;;;;6.18;100.00;98391.31;5035003;28;20396;-75
2024/03/26 05:25:58;;;;;;;11.18;6.57;;;;;;;6.22;100.00;98392.53;5001985;28;20033;-75
2024/03/26 05:28:24;;;;;;;9.23;5.07;;;;;;;6.22;100.00;98387.19;5002431;28;20039;-76
2024/03/26 05:30:49;;;;;;;7.15;4.10;;;;;;;6.18;100.00;98388.63;5002003;28;20025;-75
2024/03/26 05:33:15;;;;;;;6.28;3.70;;;;;;;6.17;100.00;98385.16;5034395;28;20472;-75
2024/03/26 05:35:44;;;;;;;8.23;3.70;;;;;;;6.14;100.00;98386.38;5034662;28;20029;-75
2024/03/26 05:38:10;;;;;;;6.25;3.60;;;;;;;6.13;100.00;98398.06;5018273;28;20400;-75
2024/03/26 05:40:35;;;;;;;8.32;4.43;;;;;;;6.09;100.00;98396.84;5017468;28;20034;-75
2024/03/26 05:43:01;;;;;;;5.78;3.92;;;;;;;6.10;100.00;98397.66;5017919;28;20033;-75
2024/03/26 05:45:27;;;;;;;9.32;3.58;;;;;;;6.11;100.00;98400.13;5034183;28;20116;-75
2024/03/26 05:47:52;;;;;;;9.27;4.00;;;;;;;6.10;100.00;98395.81;5018020;28;20043;-75
2024/03/26 05:50:18;;;;;;;5.70;3.55;;;;;;;6.10;100.00;98400.34;5034227;28;20029;-75
2024/03/26 05:52:44;;;;;;;4.55;2.80;;;;;;;6.08;100.00;98392.53;5017985;28;20064;-75
2024/03/26 05:55:10;;;;;;;1.95;1.30;;;;;;;6.06;100.00;98383.06;5017977;28;20096;-75
2024/03/26 05:57:37;;;;;;;6.70;3.90;;;;;;;6.06;100.00;98381.25;5033993;28;20065;-74
2024/03/26 06:00:03;;;;;;;9.23;3.85;;;;;;;6.06;100.00;98383.94;5001603;28;20136;-74
2024/03/26 06:02:31;;;;;;;4.72;2.90;;;;;;;6.05;100.00;98378.78;5001658;28;20538;-74
2024/03/26 06:04:56;;;;;;;7.18;3.83;;;;;;;6.04;100.00;98387.81;5017820;28;20495;-74
2024/03/26 06:07:22;;;;;;;6.00;3.17;;;;;;;6.03;100.00;98392.31;5034270;28;20065;-74
2024/03/26 06:09:48;;;;;;;7.45;3.50;;;;;;;6.03;100.00;98384.31;5017292;28;20037;-74
2024/03/26 06:12:13;;;;;;;5.43;3.28;;;;;;;6.01;100.00;98386.38;5017913;28;20060;-74
2024/03/26 06:14:39;;;;;;;4.80;3.45;;;;;;;6.03;100.00;98388.81;5001304;28;20428;-74
2024/03/26 06:17:04;;;;;;;7.03;3.00;;;;;;;6.00;100.00;98379.38;5033786;28;20068;-74
2024/03/26 06:19:30;;;;;;;7.70;3.42;;;;;;;5.99;100.00;98380.44;5001217;28;20045;-74
2024/03/26 06:21:56;;;;;;;5.95;3.33;;;;;;;5.97;100.00;98374.47;5033832;28;20091;-74
2024/03/26 06:24:21;;;;;;;4.50;2.72;;;;;;;5.97;100.00;98373.66;5001080;28;20132;-75
2024/03/26 06:26:47;;;;;;;7.20;3.95;;;;;;;5.95;100.00;98376.50;5001114;28;20033;-74
2024/03/26 06:29:12;;;;;;;5.32;3.28;;;;;;;5.94;100.00;98374.88;5001062;28;20091;-74
2024/03/26 06:31:38;;;;;;;5.00;2.97;;;;;;;5.93;100.00;98375.88;5017189;28;20431;-74
2024/03/26 06:34:04;;;;;;;8.73;2.92;;;;;;;5.92;100.00;98368.88;5033539;28;20403;-74
2024/03/26 06:36:29;;;;;;;4.88;3.40;;;;;;;5.91;100.00;98376.06;5017117;28;20491;-74
2024/03/26 06:38:55;;;;;;;8.07;4.13;;;;;;;5.90;100.00;98376.28;5000886;28;20136;-74
2024/03/26 06:41:20;;;;;;;9.13;3.55;;;;;;;5.88;100.00;98368.50;5017144;28;20122;-74
2024/03/26 06:43:46;;;;;;;4.43;2.40;;;;;;;5.88;100.00;98365.00;5017078;28;20122;-74
2024/03/26 06:46:13;;;;;;;6.38;3.03;;;;;;;5.87;100.00;98364.16;5017027;28;20030;-74
2024/03/26 06:48:38;;;;;;;5.65;3.03;;;;;;;5.88;100.00;98359.69;5032830;28;20029;-74
2024/03/26 06:51:04;;;;;;;4.18;3.00;;;;;;;5.87;100.00;98368.69;5000377;28;20037;-74
2024/03/26 06:53:30;;;;;;;6.68;2.80;;;;;;;5.86;100.00;98362.53;5015938;28;20060;-74
2024/03/26 06:55:55;;;;;;;4.13;2.88;;;;;;;5.88;100.00;98359.69;5050018;28;20052;-74
2024/03/26 06:58:21;;;;;;;6.43;3.30;;;;;;;5.87;100.00;98360.69;5017352;28;20358;-74
2024/03/26 07:00:48;;;;;;;10.93;2.60;;;;;;;5.88;100.00;98357.81;5016858;28;20033;-74
2024/03/26 07:03:15;;;;;;;4.68;3.13;;;;;;;5.89;100.00;98356.78;5048978;28;20439;-75
2024/03/26 07:05:40;;;;;;;4.22;2.67;;;;;;;5.89;100.00;98355.97;5000285;28;20070;-75
2024/03/26 07:08:06;;;;;;;3.13;2.35;;;;;;;5.89;100.00;98355.97;5000934;28;20406;-74
2024/03/26 07:10:32;;;;;;;4.57;2.72;;;;;;;5.88;100.00;98349.81;5000265;28;20456;-74
2024/03/26 07:12:57;;;;;;;3.53;2.40;;;;;;;5.88;100.00;98347.16;5032965;28;20091;-74
2024/03/26 07:15:23;;;;;;;3.15;1.88;;;;;;;5.89;100.00;98343.44;5000220;28;20035;-74
2024/03/26 07:17:49;;;;;;;3.03;1.98;;;;;;;5.91;100.00;98348.59;5016535;28;20036;-74
2024/03/26 07:20:15;;;;;;;4.07;2.30;;;;;;;5.93;100.00;98344.72;5032841;28;20041;-75
2024/03/26 07:22:41;;;;;;;3.88;2.28;;;;;;;5.94;100.00;98341.03;5016094;28;20136;-75
2024/03/26 07:25:07;;;;;;;3.20;2.22;;;;;;;5.95;100.00;98339.16;5016450;28;20052;-74
2024/03/26 07:27:34;;;;;;;3.08;2.30;;;;;;;5.97;100.00;98337.13;5000006;28;20210;-75
2024/03/26 07:30:04;;;;;;;3.65;2.25;;;;;;;5.97;100.00;98341.66;5033741;28;20033;-74
2024/03/26 07:32:29;;;;;;;5.43;2.40;;;;;;;5.96;100.00;98338.16;5000251;28;20033;-74
2024/03/26 07:34:55;;;;;;;7.50;2.25;;;;;;;5.98;100.00;98333.44;5015804;28;20029;-75
2024/03/26 07:37:20;;;;;;;7.25;2.00;;;;;;;5.95;100.00;98333.84;5032551;28;20036;-74
2024/03/26 07:39:46;;;;;;;7.13;1.95;;;;;;;5.96;100.00;98332.00;4999887;28;20033;-75
2024/03/26 07:42:12;;;;;;;3.10;1.90;;;;;;;5.96;100.00;98338.16;5032346;28;20033;-75
2024/03/26 07:44:37;;;;;;;3.10;1.73;;;;;;;5.97;100.00;98333.66;5015831;28;20038;-74
2024/03/26 07:47:04;;;;;;;5.13;2.88;;;;;;;5.99;100.00;98334.25;5032427;28;20029;-74
2024/03/26 07:49:31;;;;;;;1.73;1.55;;;;;;;6.01;100.00;98332.22;5048662;28;20029;-74
2024/03/26 07:51:56;;;;;;;1.73;1.20;;;;;;;6.01;100.00;98333.03;5015813;28;20030;-74
2024/03/26 07:54:22;;;;;;;3.22;1.50;;;;;;;6.00;100.00;98325.22;4999478;28;20037;-74
2024/03/26 07:56:48;;;;;;;1.83;1.33;;;;;;;6.02;100.00;98324.00;5016131;28;20053;-74
2024/03/26 07:59:14;;;;;;;3.70;1.38;;;;;;;6.05;100.00;98323.56;5015633;28;20029;-74
2024/03/26 08:01:40;;;;;;;4.15;1.73;;;;;;;6.08;100.00;98320.50;5032470;28;20369;-74
2024/03/26 08:04:05;;;;;;;1.75;1.30;;;;;;;6.10;100.00;98322.97;5001067;28;20427;-74
2024/03/26 08:06:31;;;;;;;1.65;1.17;;;;;;;6.10;100.00;98322.97;5003651;28;20033;-75
2024/03/26 08:08:57;;;;;;;1.65;1.23;;;;;;;6.11;100.00;98313.91;5036405;28;20036;-74
2024/03/26 08:11:23;;;;;;;1.48;1.08;;;;;;;6.13;100.00;98319.88;5003382;28;20033;-74
2024/03/26 08:13:49;;;;;;;1.58;1.15;;;;;;;6.14;100.00;98322.34;5036320;28;20036;-74
2024/03/26 08:16:15;;;;;;;1.08;0.95;;;;;;;6.12;100.00;98307.56;5019909;28;20038;-74
2024/03/26 08:18:41;;;;;;;1.27;0.90;;;;;;;6.14;100.00;98314.34;5003411;28;20025;-75
2024/03/26 08:21:06;;;;;;;1.13;0.88;;;;;;;6.10;100.00;98305.09;5003450;28;20037;-74
2024/03/26 08:23:32;;;;;;;0.70;0.70;;;;;;;6.06;100.00;98309.22;5019836;28;20124;-74
2024/03/26 08:25:58;;;;;;;0.50;0.50;;;;;;;6.03;100.00;98309.63;5003941;28;20026;-74
2024/03/26 08:28:24;;;;;;;0.65;0.65;;;;;;;6.02;100.00;98307.97;5003290;28;20464;-74
2024/03/26 08:30:49;;;;;;;0.55;0.50;;;;;;;6.01;100.00;98301.03;5003060;28;20282;-75
2024/03/26 08:33:15;;;;;;;2.05;0.70;;;;;;;5.98;100.00;98312.09;5036028;28;20099;-75
2024/03/26 08:35:41;;;;;;;0.80;0.70;;;;;;;5.96;100.00;98306.16;5003090;28;20037;-74
2024/03/26 08:38:07;;;;;;;0.68;0.68;;;;;;;5.94;100.00;98305.53;5035996;28;20064;-74
2024/03/26 08:40:33;;;;;;;0.60;0.60;;;;;;;5.94;100.00;98305.53;5002775;28;20468;-75
2024/03/26 08:42:59;;;;;;;0.63;0.63;;;;;;;5.94;100.00;98305.53;5036416;28;20338;-75
2024/03/26 08:45:25;;;;;;;0.60;0.60;;;;;;;5.91;100.00;98300.59;5019196;28;20037;-74
2024/03/26 08:47:51;;;;;;;0.50;0.50;;;;;;;5.92;100.00;98300.34;5002937;28;20137;-74
2024/03/26 08:50:17;;;;;;;1.15;0.70;;;;;;;5.92;100.00;98296.88;5002765;28;20033;-74
2024/03/26 08:52:43;;;;;;;0.60;0.60;;;;;;;5.88;100.00;98296.47;5002875;28;20132;-74
2024/03/26 08:55:09;;;;;;;0.85;0.60;;;;;;;5.89;100.00;98286.63;5018597;28;20033;-74
2024/03/26 08:57:34;;;;;;;0.60;0.60;;;;;;;5.90;100.00;98282.91;5002775;28;20037;-74
2024/03/26 09:00:01;;;;;;;0.73;0.60;;;;;;;5.88;100.00;98287.66;5035388;28;20037;-74
2024/03/26 09:02:27;;;;;;;0.68;0.68;;;;;;;5.86;100.00;98287.84;5002134;28;20435;-75
2024/03/26 09:04:53;;;;;;;1.27;0.90;;;;;;;5.85;100.00;98274.75;5001658;28;20026;-74
2024/03/26 09:07:18;;;;;;;1.25;1.10;;;;;;;5.84;100.00;98275.75;5018387;28;20136;-74
2024/03/26 09:09:44;;;;;;;0.75;0.73;;;;;;;5.85;100.00;98269.41;5002282;28;20045;-74
2024/03/26 09:12:10;;;;;;;1.42;0.90;;;;;;;5.85;100.00;98280.91;5002048;28;20072;-74
2024/03/26 09:14:35;;;;;;;1.00;0.80;;;;;;;5.89;100.00;98274.09;5034549;28;20037;-75
2024/03/26 09:17:03;;;;;;;3.72;0.80;;;;;;;5.90;100.00;98269.59;5011905;28;20030;-74
2024/03/26 09:19:29;;;;;;;0.73;0.70;;;;;;;5.93;100.00;98261.19;5014757;28;20041;-74
2024/03/26 09:21:55;;;;;;;3.05;1.30;;;;;;;5.97;100.00;98257.09;4998409;28;20034;-74
2024/03/26 09:24:21;;;;;;;1.98;1.20;;;;;;;5.95;100.00;98251.16;5015270;28;20037;-74
2024/03/26 09:26:47;;;;;;;1.20;1.10;;;;;;;5.94;100.00;98252.19;5014536;28;20433;-75
2024/03/26 09:29:13;;;;;;;1.92;1.20;;;;;;;5.98;100.00;98249.91;5014811;28;20068;-74
2024/03/26 09:31:39;;;;;;;1.40;1.20;;;;;;;5.98;100.00;98229.41;5014923;28;20056;-74
2024/03/26 09:34:06;;;;;;;0.68;0.68;;;;;;;6.02;100.00;98227.97;5014817;28;20021;-74
2024/03/26 09:36:31;;;;;;;1.20;1.02;;;;;;;6.04;100.00;98228.56;4998337;28;20037;-74
2024/03/26 09:38:57;;;;;;;2.63;1.58;;;;;;;5.97;100.00;98218.94;5015123;28;20038;-74
2024/03/26 09:41:27;;;;;;;2.90;1.40;;;;;;;6.03;100.00;98226.91;5014454;28;20061;-74
2024/03/26 09:43:53;;;;;;;1.88;1.40;;;;;;;6.08;100.00;98216.44;5024994;28;20441;-75
2024/03/26 09:46:19;;;;;;;0.77;0.75;;;;;;;6.10;100.00;98208.25;5021376;28;20037;-75
2024/03/26 09:48:46;;;;;;;4.97;2.35;;;;;;;6.09;100.00;98215.44;5053789;28;20036;-75
2024/03/26 09:51:13;;;;;;;1.15;1.02;;;;;;;6.03;100.00;98207.44;5037658;28;20029;-75
2024/03/26 09:53:41;;;;;;;2.10;1.20;;;;;;;5.98;100.00;98208.09;5037550;28;20051;-75
2024/03/26 09:56:06;;;;;;;2.25;1.50;;;;;;;5.95;100.00;98200.47;5004998;28;20041;-75
2024/03/26 09:58:32;;;;;;;1.30;1.08;;;;;;;5.91;100.00;98208.06;5037777;28;20047;-75
2024/03/26 10:00:58;;;;;;;5.00;0.98;;;;;;;5.91;100.00;98199.25;5037625;28;20033;-75
2024/03/26 10:03:26;;;;;;;1.05;1.00;;;;;;;5.93;100.00;98198.03;5037566;28;20040;-75
2024/03/26 10:05:52;;;;;;;5.00;1.98;;;;;;;5.94;100.00;98201.50;5004894;28;20068;-75
2024/03/26 10:08:19;;;;;;;3.97;1.75;;;;;;;5.98;100.00;98194.75;5037611;28;20035;-75
2024/03/26 10:10:44;;;;;;;2.28;1.52;;;;;;;6.01;100.00;98193.50;5036991;28;20029;-75
2024/03/26 10:13:11;;;;;;;2.25;1.50;;;;;;;6.00;100.00;98191.84;5020974;28;20048;-75
2024/03/26 10:15:40;;;;;;;3.97;2.00;;;;;;;6.02;100.00;98198.63;5037013;28;20036;-75
2024/03/26 10:18:06;;;;;;;1.23;0.90;;;;;;;6.08;100.00;98197.78;5037385;28;20036;-75
2024/03/26 10:20:32;;;;;;;2.22;1.40;;;;;;;6.09;100.00;98194.09;5037221;28;20040;-75
2024/03/26 10:23:04;;;;;;;5.68;1.13;;;;;;;6.01;100.00;98191.66;5053696;28;20040;-75
2024/03/26 10:25:30;;;;;;;2.67;1.95;;;;;;;6.10;100.00;98197.56;5020721;28;20128;-75
2024/03/26 10:27:56;;;;;;;0.68;0.68;;;;;;;6.15;100.00;98195.09;5053465;28;20052;-75
2024/03/26 10:30:22;;;;;;;3.40;2.03;;;;;;;6.26;100.00;98189.09;5037011;28;20547;-75
2024/03/26 10:32:56;;;;;;;1.90;1.55;;;;;;;6.38;100.00;98183.94;5019009;28;20045;-75
2024/03/26 10:35:23;;;;;;;3.40;1.92;;;;;;;6.41;100.00;98178.16;5036652;28;20076;-75
2024/03/26 10:37:51;;;;;;;3.00;1.58;;;;;;;6.57;100.00;98183.03;5020532;28;20041;-75
2024/03/26 10:40:40;;;;;;;2.78;1.63;;;;;;;6.77;100.00;98166.91;5021223;28;20045;-75
2024/03/26 10:43:05;;;;;;;0.90;0.90;;;;;;;6.81;100.00;98172.63;5036537;28;20095;-75
2024/03/26 10:45:31;;;;;;;1.30;1.00;;;;;;;6.89;100.00;98167.03;5020336;28;20047;-75
2024/03/26 10:48:00;;;;;;;4.10;1.80;;;;;;;6.96;100.00;98156.28;5020508;28;20119;-75
2024/03/26 10:50:26;;;;;;;2.60;1.50;;;;;;;6.99;100.00;98155.88;5036270;28;20025;-75
2024/03/26 10:52:52;;;;;;;3.47;1.63;;;;;;;6.91;100.00;98156.13;5020309;28;20115;-75
2024/03/26 10:55:18;;;;;;;3.47;1.70;;;;;;;6.77;100.00;98147.38;5019925;28;20025;-75
2024/03/26 10:57:44;;;;;;;3.97;2.40;;;;;;;6.62;100.00;98149.53;5036898;28;20053;-75
2024/03/26 11:00:12;;;;;;;3.65;2.25;;;;;;;6.52;100.00;98144.66;5036400;28;20048;-75
2024/03/26 11:02:41;;;;;;;1.90;1.50;;;;;;;6.38;100.00;98127.88;5052882;28;20039;-75
2024/03/26 11:05:08;;;;;;;1.83;1.42;;;;;;;6.43;100.00;98136.06;5052729;28;20115;-74
2024/03/26 11:07:35;;;;;;;2.00;1.45;;;;;;;6.55;100.00;98137.03;5004324;28;20053;-75
2024/03/26 11:10:11;;;;;;;2.97;1.60;;;;;;;6.65;100.00;98117.88;5036366;28;20518;-74
2024/03/26 11:12:40;;;;;;;2.95;1.98;;;;;;;6.76;100.00;98121.69;5021265;28;20124;-75
2024/03/26 11:15:31;;;;;;;3.25;2.00;;;;;;;6.78;100.00;98114.31;5003626;28;20033;-75
2024/03/26 11:17:58;;;;;;;2.80;1.75;;;;;;;6.76;100.00;98111.03;5052434;28;20048;-75
2024/03/26 11:20:25;;;;;;;3.38;1.38;;;;;;;6.72;100.00;98102.63;5052667;28;20029;-75
2024/03/26 11:23:06;;;;;;;3.10;1.73;;;;;;;6.72;100.00;98107.13;5052441;28;20368;-75
2024/03/26 11:25:33;;;;;;;3.90;2.35;;;;;;;6.76;100.00;98095.81;5052685;28;20029;-75
2024/03/26 11:28:01;;;;;;;2.42;1.60;;;;;;;6.74;100.00;98095.19;5052621;28;20476;-75